Kennett, Missouri
Current Conditions -  °F | °C
As of 2:53 AM on Thursday 27 Nov 2014 (Local Time) from KHKA Reporting Station
Overcast Overcast  
Wind Chill:   Ceiling: 3600
Heat Index:   Visibility: 10mi
Dew Point:   Wind: 21mph
Humidity: 60%   Direction: 340°NNW
Pressure: 30.3"   Gusts: NA
Location:  36.24°N, 90.05°W
Report Text: KHKA 270853Z AUTO 34018KT 10SM OVC036 07/00 A3030 RMK AO2 SLP259 T00720000 53035
Loading
Personal Weather Stations






























Interactive Weather Map New forecast layout! Learn more

10-Day Weather Forecast

Advertisements
Track Severe Weather on mobile